createdAt,value
2018-12-20T00:00:47.415Z,100140.73
2018-12-20T00:03:16.887Z,100138.14
2018-12-20T00:05:46.336Z,100141.39
2018-12-20T00:08:15.461Z,100136.64
2018-12-20T00:10:45.012Z,100133.31
2018-12-20T00:13:14.337Z,100145.42
2018-12-20T00:15:43.707Z,100135.66
2018-12-20T00:18:13.226Z,100139.34
2018-12-20T00:20:42.508Z,100137.42
2018-12-20T00:23:12.031Z,100142.52
2018-12-20T00:25:41.297Z,100147.77
2018-12-20T00:28:10.733Z,100144.01
2018-12-20T00:30:40.234Z,100142.83
2018-12-20T00:33:09.693Z,100140.09
2018-12-20T00:35:39.043Z,100138.17
2018-12-20T00:38:08.374Z,100136.31
2018-12-20T00:40:37.843Z,100146.05
2018-12-20T00:43:07.190Z,100151.94
2018-12-20T00:45:36.440Z,100151.30
2018-12-20T00:48:05.679Z,100152.13
2018-12-20T00:50:35.089Z,100152.60
2018-12-20T00:53:04.530Z,100155.94
2018-12-20T00:55:33.921Z,100160.95
2018-12-20T00:58:03.157Z,100166.61
2018-12-20T01:00:32.423Z,100166.02
2018-12-20T01:03:01.684Z,100162.67
2018-12-20T01:05:31.006Z,100163.73
2018-12-20T01:08:00.493Z,100159.14
2018-12-20T01:10:30.005Z,100160.63
2018-12-20T01:12:59.392Z,100167.28
2018-12-20T01:15:28.523Z,100161.20
2018-12-20T01:17:57.750Z,100169.55
2018-12-20T01:20:27.296Z,100160.17
2018-12-20T01:22:56.614Z,100162.19
2018-12-20T01:25:25.704Z,100161.97
2018-12-20T01:27:55.123Z,100166.89
2018-12-20T01:30:24.382Z,100170.29
2018-12-20T01:32:53.700Z,100167.28
2018-12-20T01:35:23.379Z,100169.55
2018-12-20T01:37:52.676Z,100167.86
2018-12-20T01:40:22.135Z,100181.72
2018-12-20T01:42:51.475Z,100180.16
2018-12-20T01:45:21.043Z,100181.59
2018-12-20T01:47:50.363Z,100177.52
2018-12-20T01:50:19.671Z,100172.92
2018-12-20T01:52:49.176Z,100171.85
2018-12-20T01:55:18.908Z,100177.75
2018-12-20T01:57:48.208Z,100175.95
2018-12-20T02:00:17.537Z,100171.70
2018-12-20T02:02:46.905Z,100175.70
2018-12-20T02:05:16.547Z,100177.49
2018-12-20T02:07:45.764Z,100180.98
2018-12-20T02:10:15.186Z,100178.59
2018-12-20T02:12:44.652Z,100165.83
2018-12-20T02:15:14.058Z,100163.75
2018-12-20T02:17:43.272Z,100160.62
2018-12-20T02:20:12.947Z,100164.49
2018-12-20T02:22:42.338Z,100157.12
2018-12-20T02:25:11.648Z,100154.62
2018-12-20T02:27:41.027Z,100162.42
2018-12-20T02:30:11.828Z,100141.84
2018-12-20T02:32:41.071Z,100153.13
2018-12-20T02:35:10.679Z,100155.09
2018-12-20T02:37:39.797Z,100154.13
2018-12-20T02:40:09.136Z,100150.24
2018-12-20T02:42:38.788Z,100145.00
2018-12-20T02:45:10.935Z,100143.25
2018-12-20T02:47:39.503Z,100142.53
2018-12-20T02:50:09.206Z,100143.48
2018-12-20T02:52:38.532Z,100140.67
2018-12-20T02:55:08.266Z,100156.06
2018-12-20T02:57:37.897Z,100155.16
2018-12-20T03:00:07.668Z,100146.36
2018-12-20T03:02:37.083Z,100136.56
2018-12-20T03:05:07.136Z,100135.53
2018-12-20T03:07:36.844Z,100138.56
2018-12-20T03:10:06.305Z,100133.77
2018-12-20T03:12:35.635Z,100141.48
2018-12-20T03:15:04.943Z,100133.77
2018-12-20T03:17:34.478Z,100136.52
2018-12-20T03:20:03.970Z,100135.69
2018-12-20T03:22:33.527Z,100139.79
2018-12-20T03:25:02.813Z,100134.49
2018-12-20T03:27:32.146Z,100133.88
2018-12-20T03:30:01.565Z,100126.86
2018-12-20T03:32:30.850Z,100135.18
2018-12-20T03:34:59.990Z,100128.91
2018-12-20T03:37:29.391Z,100131.83
2018-12-20T03:39:58.939Z,100132.42
2018-12-20T03:42:28.686Z,100130.84
2018-12-20T03:44:58.056Z,100114.96
2018-12-20T03:47:27.471Z,100132.20
2018-12-20T03:49:56.704Z,100129.41
2018-12-20T03:52:26.018Z,100132.54
2018-12-20T03:54:55.640Z,100134.56
2018-12-20T03:57:25.150Z,100125.67
2018-12-20T03:59:54.534Z,100128.81
2018-12-20T04:02:25.442Z,100127.48
2018-12-20T04:04:54.792Z,100133.89
2018-12-20T04:07:24.043Z,100134.47
2018-12-20T04:09:53.405Z,100136.33
2018-12-20T04:12:22.832Z,100141.08
2018-12-20T04:14:52.022Z,100137.18
2018-12-20T04:17:21.697Z,100140.72
2018-12-20T04:19:50.825Z,100133.05
2018-12-20T04:22:20.117Z,100142.92
2018-12-20T04:24:49.607Z,100137.52
2018-12-20T04:27:18.797Z,100133.94
2018-12-20T04:29:48.104Z,100137.83
2018-12-20T04:32:17.431Z,100133.31
2018-12-20T04:34:46.996Z,100136.92
2018-12-20T04:37:16.655Z,100132.60
2018-12-20T04:39:46.092Z,100129.17
2018-12-20T04:42:15.420Z,100132.91
2018-12-20T04:44:45.152Z,100125.03
2018-12-20T04:47:14.662Z,100132.89
2018-12-20T04:49:44.194Z,100130.12
2018-12-20T04:52:13.613Z,100128.08
2018-12-20T04:54:43.205Z,100129.30
2018-12-20T04:57:12.393Z,100138.38
2018-12-20T04:59:41.913Z,100143.55
2018-12-20T05:02:11.566Z,100145.13
2018-12-20T05:04:41.136Z,100157.98
2018-12-20T05:07:10.598Z,100150.03
2018-12-20T05:09:40.086Z,100145.58
2018-12-20T05:12:09.583Z,100160.72
2018-12-20T05:14:39.302Z,100150.26
2018-12-20T05:17:08.717Z,100144.96
2018-12-20T05:19:38.210Z,100146.64
2018-12-20T05:22:07.526Z,100142.92
2018-12-20T05:24:37.423Z,100146.53
2018-12-20T05:27:06.905Z,100148.94
2018-12-20T05:29:36.460Z,100132.05
2018-12-20T05:32:05.746Z,100129.88
2018-12-20T05:34:35.271Z,100129.41
2018-12-20T05:37:04.651Z,100138.55
2018-12-20T05:39:34.178Z,100136.41
2018-12-20T05:42:03.581Z,100140.75
2018-12-20T05:44:33.205Z,100146.17
2018-12-20T05:47:02.940Z,100149.04
2018-12-20T05:49:32.603Z,100152.17
2018-12-20T05:52:02.207Z,100146.37
2018-12-20T05:54:31.847Z,100148.67
2018-12-20T05:57:01.475Z,100161.60
2018-12-20T05:59:31.393Z,100163.88
2018-12-20T06:02:01.093Z,100155.09
2018-12-20T06:04:30.984Z,100165.34
2018-12-20T06:07:00.238Z,100163.77
2018-12-20T06:09:30.087Z,100169.30
2018-12-20T06:11:59.708Z,100169.44
2018-12-20T06:14:29.512Z,100172.45
2018-12-20T06:16:59.022Z,100177.11
2018-12-20T06:19:28.666Z,100188.59
2018-12-20T06:21:58.344Z,100188.44
2018-12-20T06:24:27.695Z,100188.08
2018-12-20T06:26:57.084Z,100188.26
2018-12-20T06:29:26.188Z,100172.69
2018-12-20T06:31:55.461Z,100183.69
2018-12-20T06:34:24.843Z,100180.98
2018-12-20T06:36:54.737Z,100183.50
2018-12-20T06:39:24.536Z,100190.64
2018-12-20T06:41:54.367Z,100187.49
2018-12-20T06:44:24.183Z,100194.14
2018-12-20T06:46:54.184Z,100190.17
2018-12-20T06:49:23.799Z,100184.85
2018-12-20T06:51:53.307Z,100191.36
2018-12-20T06:54:23.354Z,100187.03
2018-12-20T06:56:52.906Z,100186.65
2018-12-20T06:59:22.691Z,100188.80
2018-12-20T07:01:52.264Z,100201.69
2018-12-20T07:04:21.707Z,100194.09
2018-12-20T07:06:51.067Z,100189.44
2018-12-20T07:09:20.628Z,100187.83
2018-12-20T07:11:49.756Z,100200.11
2018-12-20T07:14:19.183Z,100203.39
2018-12-20T07:16:48.500Z,100205.10
2018-12-20T07:19:17.691Z,100204.64
2018-12-20T07:21:47.158Z,100206.83
2018-12-20T07:24:16.718Z,100210.80
2018-12-20T07:26:46.046Z,100209.22
2018-12-20T07:29:15.480Z,100208.72
2018-12-20T07:31:45.176Z,100218.47
2018-12-20T07:34:16.230Z,100211.27
2018-12-20T07:36:45.763Z,100221.50
2018-12-20T07:39:15.091Z,100216.30
2018-12-20T07:41:44.644Z,100215.81
2018-12-20T07:44:20.862Z,100216.55
2018-12-20T07:46:50.099Z,100215.12
2018-12-20T07:49:20.092Z,100212.42
2018-12-20T07:51:50.040Z,100226.22
2018-12-20T07:54:19.650Z,100222.06
2018-12-20T07:56:48.955Z,100230.53
2018-12-20T07:59:23.454Z,100238.92
2018-12-20T08:01:49.996Z,100239.03
2018-12-20T08:04:19.395Z,100239.42
2018-12-20T08:06:48.680Z,100236.02
2018-12-20T08:09:18.213Z,100238.91
2018-12-20T08:11:47.683Z,100237.85
2018-12-20T08:14:16.934Z,100244.90
2018-12-20T08:16:46.435Z,100247.20
2018-12-20T08:19:15.875Z,100242.74
2018-12-20T08:21:45.431Z,100258.30
2018-12-20T08:24:14.657Z,100253.25
2018-12-20T08:26:43.916Z,100254.80
2018-12-20T08:29:13.789Z,100254.43
2018-12-20T08:31:44.433Z,100248.16
2018-12-20T08:34:14.848Z,100251.06
2018-12-20T08:36:44.544Z,100254.41
2018-12-20T08:39:14.435Z,100258.67
2018-12-20T08:41:44.641Z,100260.59
2018-12-20T08:44:13.763Z,100265.16
2018-12-20T08:46:54.116Z,100272.55
2018-12-20T08:49:18.314Z,100260.95
2018-12-20T08:51:49.204Z,100271.30
2018-12-20T08:54:18.836Z,100269.52
2018-12-20T08:56:48.073Z,100274.48
2018-12-20T08:59:17.424Z,100262.52
2018-12-20T09:01:46.805Z,100269.37
2018-12-20T09:04:16.313Z,100271.27
2018-12-20T09:06:45.443Z,100275.12
2018-12-20T09:09:14.799Z,100277.20
2018-12-20T09:11:44.042Z,100274.59
2018-12-20T09:14:13.347Z,100282.44
2018-12-20T09:16:42.686Z,100286.27
2018-12-20T09:19:12.063Z,100277.11
2018-12-20T09:21:41.550Z,100287.71
2018-12-20T09:24:11.008Z,100293.53
2018-12-20T09:26:40.352Z,100295.33
2018-12-20T09:29:09.735Z,100292.05
2018-12-20T09:31:39.103Z,100293.25
2018-12-20T09:34:08.368Z,100287.92
2018-12-20T09:36:37.760Z,100296.28
2018-12-20T09:39:09.128Z,100306.27
2018-12-20T09:41:38.508Z,100299.25
2018-12-20T09:44:07.993Z,100295.98
2018-12-20T09:46:37.442Z,100298.62
2018-12-20T09:49:07.171Z,100298.00
2018-12-20T09:51:36.524Z,100293.66
2018-12-20T09:54:05.719Z,100290.63
2018-12-20T09:56:35.269Z,100294.96
2018-12-20T09:59:04.507Z,100297.45
2018-12-20T10:01:34.171Z,100287.05
2018-12-20T10:04:03.544Z,100295.73
2018-12-20T10:06:33.006Z,100302.67
2018-12-20T10:09:02.203Z,100291.79
2018-12-20T10:11:31.565Z,100296.06
2018-12-20T10:14:01.107Z,100293.91
2018-12-20T10:16:30.717Z,100280.86
2018-12-20T10:18:59.901Z,100290.00
2018-12-20T10:21:29.476Z,100281.34
2018-12-20T10:23:58.703Z,100278.31
2018-12-20T10:26:28.050Z,100271.30
2018-12-20T10:28:57.376Z,100271.58
2018-12-20T10:31:26.796Z,100274.15
2018-12-20T10:33:56.051Z,100258.24
2018-12-20T10:36:25.297Z,100265.49
2018-12-20T10:38:54.574Z,100277.34
2018-12-20T10:41:24.014Z,100271.38
2018-12-20T10:43:53.467Z,100276.31
2018-12-20T10:46:22.920Z,100274.98
2018-12-20T10:48:52.256Z,100268.34
2018-12-20T10:51:21.700Z,100267.01
2018-12-20T10:53:50.916Z,100260.41
2018-12-20T10:56:20.438Z,100270.86
2018-12-20T10:58:49.864Z,100267.84
2018-12-20T11:01:24.247Z,100268.22
2018-12-20T11:03:57.420Z,100270.52
2018-12-20T11:06:32.024Z,100275.59
2018-12-20T11:09:06.289Z,100275.55
2018-12-20T11:11:40.982Z,100275.66
2018-12-20T11:14:10.328Z,100273.22
2018-12-20T11:16:39.613Z,100260.11
2018-12-20T11:19:08.779Z,100262.64
2018-12-20T11:21:38.072Z,100261.14
2018-12-20T11:24:08.439Z,100258.00
2018-12-20T11:26:37.784Z,100259.53
2018-12-20T11:29:07.016Z,100254.56
2018-12-20T11:31:36.340Z,100257.44
2018-12-20T11:34:05.655Z,100247.69
2018-12-20T11:36:34.934Z,100248.61
2018-12-20T11:39:08.454Z,100241.20
2018-12-20T11:41:36.900Z,100249.64
2018-12-20T11:44:06.756Z,100243.59
2018-12-20T11:46:36.425Z,100239.44
2018-12-20T11:49:05.630Z,100244.41
2018-12-20T11:51:35.004Z,100242.38
2018-12-20T11:54:04.384Z,100238.56
2018-12-20T11:56:33.717Z,100235.38
2018-12-20T11:59:03.113Z,100229.11
2018-12-20T12:01:32.564Z,100231.97
2018-12-20T12:04:01.920Z,100233.36
2018-12-20T12:06:31.234Z,100231.87
2018-12-20T12:09:00.570Z,100236.02
2018-12-20T12:11:30.207Z,100233.42
2018-12-20T12:13:59.740Z,100235.95
2018-12-20T12:16:29.143Z,100233.26
2018-12-20T12:18:58.612Z,100241.54
2018-12-20T12:21:28.040Z,100238.98
2018-12-20T12:23:58.059Z,100239.52
2018-12-20T12:26:27.371Z,100242.66
2018-12-20T12:28:56.778Z,100237.85
2018-12-20T12:31:26.460Z,100236.52
2018-12-20T12:33:55.925Z,100235.83
2018-12-20T12:36:25.358Z,100235.34
2018-12-20T12:38:54.980Z,100243.09
2018-12-20T12:41:24.181Z,100242.42
2018-12-20T12:43:53.833Z,100241.51
2018-12-20T12:46:23.171Z,100241.16
2018-12-20T12:48:52.640Z,100238.48
2018-12-20T12:51:22.086Z,100240.81
2018-12-20T12:53:51.664Z,100235.35
2018-12-20T12:56:20.914Z,100233.58
2018-12-20T12:58:53.085Z,100234.92
2018-12-20T13:01:22.354Z,100239.41
2018-12-20T13:03:51.695Z,100234.00
2018-12-20T13:06:21.478Z,100236.10
2018-12-20T13:08:50.747Z,100231.95
2018-12-20T13:11:19.980Z,100247.25
2018-12-20T13:13:49.231Z,100232.72
2018-12-20T13:16:18.602Z,100241.10
2018-12-20T13:18:48.116Z,100238.20
2018-12-20T13:21:17.349Z,100248.34
2018-12-20T13:23:46.741Z,100248.28
2018-12-20T13:26:16.261Z,100244.34
2018-12-20T13:28:45.635Z,100247.15
2018-12-20T13:31:14.904Z,100246.02
2018-12-20T13:33:44.513Z,100253.17
2018-12-20T13:36:14.132Z,100246.06
2018-12-20T13:38:43.423Z,100241.41
2018-12-20T13:41:12.805Z,100239.22
2018-12-20T13:43:42.140Z,100241.67
2018-12-20T13:46:11.688Z,100244.14
2018-12-20T13:48:40.917Z,100244.85
2018-12-20T13:51:10.357Z,100247.42
2018-12-20T13:53:39.917Z,100243.58
2018-12-20T13:56:09.552Z,100245.41
2018-12-20T13:58:38.892Z,100246.58
2018-12-20T14:01:08.286Z,100247.91
2018-12-20T14:03:37.547Z,100246.80
2018-12-20T14:06:07.133Z,100244.70
2018-12-20T14:08:36.445Z,100250.75
2018-12-20T14:11:05.731Z,100249.97
2018-12-20T14:13:34.973Z,100251.72
2018-12-20T14:16:05.417Z,100247.22
2018-12-20T14:18:35.356Z,100254.78
2018-12-20T14:21:04.814Z,100257.16
2018-12-20T14:23:34.341Z,100264.03
2018-12-20T14:26:03.858Z,100262.94
2018-12-20T14:28:33.088Z,100263.56
2018-12-20T14:31:02.337Z,100264.60
2018-12-20T14:33:32.814Z,100252.65
2018-12-20T14:36:02.411Z,100257.73
2018-12-20T14:38:31.606Z,100255.50
2018-12-20T14:41:01.175Z,100258.68
2018-12-20T14:43:30.500Z,100262.38
2018-12-20T14:45:59.775Z,100261.89
2018-12-20T14:48:39.057Z,100265.38
2018-12-20T14:51:02.211Z,100262.08
2018-12-20T14:53:31.438Z,100263.55
2018-12-20T14:56:00.700Z,100266.61
2018-12-20T14:58:30.187Z,100257.80
2018-12-20T15:00:59.448Z,100257.59
2018-12-20T15:03:28.806Z,100270.98
2018-12-20T15:05:59.143Z,100264.28
2018-12-20T15:08:28.660Z,100269.88
2018-12-20T15:10:58.007Z,100265.73
2018-12-20T15:13:28.178Z,100274.63
2018-12-20T15:15:57.371Z,100269.77
2018-12-20T15:18:26.751Z,100274.04
2018-12-20T15:20:55.908Z,100269.94
2018-12-20T15:23:25.495Z,100270.81
2018-12-20T15:25:54.938Z,100270.22
2018-12-20T15:28:24.890Z,100270.28
2018-12-20T15:30:54.128Z,100279.96
2018-12-20T15:33:23.431Z,100276.10
2018-12-20T15:35:53.125Z,100276.59
2018-12-20T15:38:23.440Z,100278.63
2018-12-20T15:40:53.464Z,100280.24
2018-12-20T15:43:22.829Z,100280.87
2018-12-20T15:45:54.130Z,100278.11
2018-12-20T15:48:23.724Z,100280.77
2018-12-20T15:50:53.262Z,100282.62
2018-12-20T15:53:22.869Z,100286.72
2018-12-20T15:55:52.889Z,100291.44
2018-12-20T15:58:22.908Z,100293.13
2018-12-20T16:00:53.099Z,100294.11
2018-12-20T16:03:23.060Z,100284.14
2018-12-20T16:05:53.604Z,100301.19
2018-12-20T16:08:23.185Z,100293.20
2018-12-20T16:10:53.697Z,100296.22
2018-12-20T16:13:23.443Z,100311.95
2018-12-20T16:15:53.608Z,100313.99
2018-12-20T16:18:23.548Z,100318.48
2018-12-20T16:20:52.964Z,100314.01
2018-12-20T16:23:22.198Z,100316.78
2018-12-20T16:25:51.840Z,100313.09
2018-12-20T16:28:21.179Z,100327.38
2018-12-20T16:30:50.428Z,100327.80
2018-12-20T16:33:20.564Z,100334.45
2018-12-20T16:35:50.674Z,100336.28
2018-12-20T16:38:20.416Z,100334.38
2018-12-20T16:40:49.792Z,100339.62
2018-12-20T16:43:20.092Z,100343.13
2018-12-20T16:45:51.689Z,100345.91
2018-12-20T16:48:25.079Z,100348.43
2018-12-20T16:50:54.640Z,100345.20
2018-12-20T16:53:24.199Z,100357.05
2018-12-20T16:55:53.819Z,100353.90
2018-12-20T16:58:23.379Z,100354.56
2018-12-20T17:00:52.894Z,100357.84
2018-12-20T17:03:22.242Z,100361.61
2018-12-20T17:05:51.722Z,100356.91
2018-12-20T17:08:20.918Z,100359.44
2018-12-20T17:10:50.154Z,100363.03
2018-12-20T17:13:19.397Z,100358.91
2018-12-20T17:15:48.951Z,100359.31
2018-12-20T17:18:18.116Z,100359.93
2018-12-20T17:20:47.642Z,100372.78
2018-12-20T17:23:19.114Z,100371.94
2018-12-20T17:25:48.500Z,100380.70
2018-12-20T17:28:17.699Z,100378.67
2018-12-20T17:30:47.192Z,100377.09
2018-12-20T17:33:16.388Z,100381.41
2018-12-20T17:35:45.907Z,100365.61
2018-12-20T17:38:15.191Z,100381.41
2018-12-20T17:40:44.524Z,100386.11
2018-12-20T17:43:13.916Z,100379.08
2018-12-20T17:45:43.269Z,100379.56
2018-12-20T17:48:12.817Z,100378.48
2018-12-20T17:50:42.360Z,100379.82
2018-12-20T17:53:11.795Z,100379.82
2018-12-20T17:55:44.955Z,100378.09
2018-12-20T17:58:13.398Z,100381.60
2018-12-20T18:00:42.883Z,100379.17
2018-12-20T18:03:12.165Z,100366.22
2018-12-20T18:05:41.525Z,100381.11
2018-12-20T18:08:10.853Z,100382.31
2018-12-20T18:10:40.385Z,100385.72
2018-12-20T18:13:09.687Z,100392.73
2018-12-20T18:15:39.020Z,100388.28
2018-12-20T18:18:08.403Z,100384.48
2018-12-20T18:20:37.869Z,100381.70
2018-12-20T18:23:07.063Z,100387.02
2018-12-20T18:25:36.396Z,100387.47
2018-12-20T18:28:05.619Z,100381.05
2018-12-20T18:30:34.960Z,100385.87
2018-12-20T18:33:04.231Z,100382.38
2018-12-20T18:35:33.540Z,100392.43
2018-12-20T18:38:02.931Z,100393.41
2018-12-20T18:40:32.313Z,100393.30
2018-12-20T18:43:01.899Z,100376.63
2018-12-20T18:45:31.373Z,100396.22
2018-12-20T18:48:00.875Z,100397.75
2018-12-20T18:50:30.320Z,100400.05
2018-12-20T18:52:59.871Z,100394.22
2018-12-20T18:55:29.123Z,100391.78
2018-12-20T18:57:58.632Z,100409.50
2018-12-20T19:00:27.908Z,100415.66
2018-12-20T19:02:57.309Z,100408.30
2018-12-20T19:05:26.713Z,100409.66
2018-12-20T19:07:56.285Z,100406.52
2018-12-20T19:10:25.668Z,100410.25
2018-12-20T19:12:55.289Z,100404.38
2018-12-20T19:15:24.593Z,100409.53
2018-12-20T19:17:54.411Z,100402.49
2018-12-20T19:20:23.790Z,100404.62
2018-12-20T19:22:53.201Z,100403.88
2018-12-20T19:25:22.816Z,100406.31
2018-12-20T19:27:52.206Z,100402.07
2018-12-20T19:30:21.651Z,100408.62
2018-12-20T19:32:51.540Z,100404.91
2018-12-20T19:35:20.979Z,100411.06
2018-12-20T19:37:50.251Z,100417.34
2018-12-20T19:40:19.690Z,100407.58
2018-12-20T19:42:49.103Z,100403.11
2018-12-20T19:45:18.311Z,100400.55
2018-12-20T19:47:47.516Z,100396.71
2018-12-20T19:50:16.810Z,100386.08
2018-12-20T19:52:46.280Z,100401.17
2018-12-20T19:55:15.825Z,100399.72
2018-12-20T19:57:45.439Z,100395.09
2018-12-20T20:00:16.696Z,100396.75
2018-12-20T20:02:46.461Z,100397.08
2018-12-20T20:05:15.691Z,100391.98
2018-12-20T20:07:45.256Z,100395.31
2018-12-20T20:10:15.144Z,100393.08
2018-12-20T20:12:44.845Z,100390.42
2018-12-20T20:15:16.758Z,100387.73
2018-12-20T20:17:46.325Z,100390.81
2018-12-20T20:20:16.041Z,100389.41
2018-12-20T20:22:46.058Z,100390.04
2018-12-20T20:25:16.102Z,100389.42
2018-12-20T20:27:45.525Z,100390.70
2018-12-20T20:30:16.612Z,100399.44
2018-12-20T20:32:46.183Z,100389.47
2018-12-20T20:35:15.899Z,100388.00
2018-12-20T20:37:46.126Z,100384.67
2018-12-20T20:40:15.831Z,100395.88
2018-12-20T20:42:45.574Z,100385.87
2018-12-20T20:45:15.302Z,100380.85
2018-12-20T20:47:45.097Z,100372.16
2018-12-20T20:50:22.000Z,100365.67
2018-12-20T20:52:46.616Z,100370.87
2018-12-20T20:55:16.416Z,100376.06
2018-12-20T20:57:46.701Z,100384.23
2018-12-20T21:00:16.314Z,100377.17
2018-12-20T21:02:46.239Z,100376.95
2018-12-20T21:05:16.021Z,100369.46
2018-12-20T21:07:45.544Z,100378.85
2018-12-20T21:10:14.804Z,100380.00
2018-12-20T21:12:44.175Z,100379.41
2018-12-20T21:15:13.860Z,100373.44
2018-12-20T21:17:43.187Z,100366.91
2018-12-20T21:20:13.823Z,100367.34
2018-12-20T21:22:43.031Z,100375.23
2018-12-20T21:25:12.417Z,100376.15
2018-12-20T21:27:41.800Z,100374.55
2018-12-20T21:30:11.826Z,100384.22
2018-12-20T21:32:41.188Z,100373.30
2018-12-20T21:35:10.657Z,100378.56
2018-12-20T21:37:40.250Z,100369.37
2018-12-20T21:40:09.871Z,100369.86
2018-12-20T21:42:39.011Z,100369.71
2018-12-20T21:45:09.859Z,100356.52
2018-12-20T21:47:39.261Z,100357.80
2018-12-20T21:50:10.584Z,100362.45
2018-12-20T21:52:40.413Z,100367.80
2018-12-20T21:55:10.413Z,100374.62
2018-12-20T21:57:39.972Z,100376.67
2018-12-20T22:00:10.754Z,100371.81
2018-12-20T22:02:40.276Z,100372.32
2018-12-20T22:05:09.700Z,100363.69
2018-12-20T22:07:38.984Z,100364.47
2018-12-20T22:10:09.031Z,100364.11
2018-12-20T22:12:39.047Z,100359.08
2018-12-20T22:15:10.600Z,100370.02
2018-12-20T22:17:39.853Z,100365.58
2018-12-20T22:20:09.099Z,100376.22
2018-12-20T22:22:38.360Z,100372.55
2018-12-20T22:25:08.269Z,100366.52
2018-12-20T22:27:37.544Z,100369.95
2018-12-20T22:30:08.732Z,100370.73
2018-12-20T22:32:38.110Z,100369.18
2018-12-20T22:35:07.271Z,100378.34
2018-12-20T22:37:36.744Z,100378.84
2018-12-20T22:40:06.796Z,100379.23
2018-12-20T22:42:36.072Z,100384.39
2018-12-20T22:45:06.253Z,100381.14
2018-12-20T22:47:35.612Z,100376.53
2018-12-20T22:50:05.092Z,100382.85
2018-12-20T22:52:34.389Z,100382.27
2018-12-20T22:55:03.887Z,100382.69
2018-12-20T22:57:33.235Z,100384.61
2018-12-20T23:00:02.486Z,100386.87
2018-12-20T23:02:32.210Z,100384.89
2018-12-20T23:05:01.484Z,100367.16
2018-12-20T23:07:31.114Z,100356.99
2018-12-20T23:10:00.576Z,100360.14
2018-12-20T23:12:29.793Z,100370.28
2018-12-20T23:14:59.524Z,100366.51
2018-12-20T23:17:28.879Z,100363.44
2018-12-20T23:19:58.237Z,100379.82
2018-12-20T23:22:27.772Z,100384.88
2018-12-20T23:24:57.552Z,100378.50
2018-12-20T23:27:26.949Z,100361.88
2018-12-20T23:29:56.592Z,100363.20
2018-12-20T23:32:25.880Z,100365.77
2018-12-20T23:34:55.203Z,100361.55
2018-12-20T23:37:24.455Z,100361.37
2018-12-20T23:39:53.837Z,100370.31
2018-12-20T23:42:23.399Z,100366.00
2018-12-20T23:44:52.729Z,100359.97
2018-12-20T23:47:22.031Z,100364.62
2018-12-20T23:49:51.571Z,100370.08
2018-12-20T23:52:21.315Z,100371.41
2018-12-20T23:54:50.792Z,100368.47
2018-12-20T23:57:20.071Z,100353.38
2018-12-20T23:59:49.520Z,100353.71
